createdAt,value
2024-02-14T00:00:37.972Z,100.00
2024-02-14T00:03:07.572Z,100.00
2024-02-14T00:05:37.131Z,100.00
2024-02-14T00:08:06.787Z,100.00
2024-02-14T00:10:35.274Z,100.00
2024-02-14T00:13:05.506Z,100.00
2024-02-14T00:15:34.641Z,100.00
2024-02-14T00:18:03.586Z,100.00
2024-02-14T00:20:33.837Z,100.00
2024-02-14T00:23:03.064Z,100.00
2024-02-14T00:25:32.426Z,100.00
2024-02-14T00:28:02.243Z,100.00
2024-02-14T00:30:32.518Z,100.00
2024-02-14T00:33:01.297Z,100.00
2024-02-14T00:35:30.290Z,100.00
2024-02-14T00:37:59.163Z,100.00
2024-02-14T00:40:27.981Z,100.00
2024-02-14T00:42:56.843Z,100.00
2024-02-14T00:45:25.716Z,100.00
2024-02-14T00:47:56.089Z,100.00
2024-02-14T00:50:25.108Z,100.00
2024-02-14T00:52:53.476Z,100.00
2024-02-14T00:55:22.406Z,100.00
2024-02-14T00:57:51.154Z,100.00
2024-02-14T01:00:20.275Z,100.00
2024-02-14T01:02:49.190Z,100.00
2024-02-14T01:05:19.719Z,100.00
2024-02-14T01:07:48.715Z,100.00
2024-02-14T01:10:17.740Z,100.00
2024-02-14T01:12:46.558Z,100.00
2024-02-14T01:15:15.472Z,100.00
2024-02-14T01:17:44.451Z,100.00
2024-02-14T01:20:13.739Z,100.00
2024-02-14T01:22:43.466Z,100.00
2024-02-14T01:25:12.396Z,100.00
2024-02-14T01:27:41.743Z,100.00
2024-02-14T01:30:12.586Z,100.00
2024-02-14T01:32:41.643Z,100.00
2024-02-14T01:35:10.914Z,100.00
2024-02-14T01:37:39.403Z,100.00
2024-02-14T01:40:12.279Z,100.00
2024-02-14T01:42:41.146Z,100.00
2024-02-14T01:45:10.903Z,100.00
2024-02-14T01:47:40.776Z,100.00
2024-02-14T01:50:12.265Z,100.00
2024-02-14T01:52:41.304Z,100.00
2024-02-14T01:55:11.958Z,100.00
2024-02-14T01:57:41.318Z,100.00
2024-02-14T02:00:10.937Z,100.00
2024-02-14T02:02:42.699Z,100.00
2024-02-14T02:05:17.220Z,100.00
2024-02-14T02:07:49.492Z,100.00
2024-02-14T02:10:22.476Z,100.00
2024-02-14T02:12:52.060Z,100.00
2024-02-14T02:15:20.977Z,100.00
2024-02-14T02:17:53.894Z,100.00
2024-02-14T02:20:23.113Z,100.00
2024-02-14T02:22:52.847Z,100.00
2024-02-14T02:25:27.730Z,100.00
2024-02-14T02:27:57.824Z,100.00
2024-02-14T02:30:26.889Z,100.00
2024-02-14T02:32:56.149Z,100.00
2024-02-14T02:35:25.772Z,100.00
2024-02-14T02:37:55.676Z,100.00
2024-02-14T02:40:24.453Z,100.00
2024-02-14T02:42:53.432Z,100.00
2024-02-14T02:45:22.651Z,100.00
2024-02-14T02:47:52.926Z,100.00
2024-02-14T02:50:23.098Z,100.00
2024-02-14T02:52:51.823Z,100.00
2024-02-14T02:55:23.972Z,100.00
2024-02-14T02:57:53.924Z,100.00
2024-02-14T03:00:23.654Z,100.00
2024-02-14T03:02:52.594Z,100.00
2024-02-14T03:05:25.035Z,100.00
2024-02-14T03:07:54.053Z,100.00
2024-02-14T03:10:24.445Z,100.00
2024-02-14T03:12:53.632Z,100.00
2024-02-14T03:15:22.664Z,100.00
2024-02-14T03:17:51.729Z,100.00
2024-02-14T03:20:21.174Z,100.00
2024-02-14T03:22:49.997Z,100.00
2024-02-14T03:25:19.816Z,100.00
2024-02-14T03:27:54.281Z,100.00
2024-02-14T03:30:24.008Z,100.00
2024-02-14T03:32:53.832Z,100.00
2024-02-14T03:35:23.356Z,100.00
2024-02-14T03:37:54.203Z,100.00
2024-02-14T03:40:23.404Z,100.00
2024-02-14T03:42:54.789Z,100.00
2024-02-14T03:45:23.822Z,100.00
2024-02-14T03:47:53.050Z,100.00
2024-02-14T03:50:22.093Z,100.00
2024-02-14T03:52:50.518Z,100.00
2024-02-14T03:55:20.429Z,100.00
2024-02-14T03:57:49.740Z,100.00
2024-02-14T04:00:23.557Z,100.00
2024-02-14T04:03:00.238Z,100.00
2024-02-14T04:05:29.665Z,100.00
2024-02-14T04:07:58.543Z,100.00
2024-02-14T04:10:27.221Z,100.00
2024-02-14T04:12:56.253Z,100.00
2024-02-14T04:15:28.000Z,100.00
2024-02-14T04:17:57.159Z,100.00
2024-02-14T04:20:26.052Z,100.00
2024-02-14T04:22:54.538Z,100.00
2024-02-14T04:25:24.006Z,100.00
2024-02-14T04:27:52.878Z,100.00
2024-02-14T04:30:21.937Z,100.00
2024-02-14T04:32:53.256Z,100.00
2024-02-14T04:35:22.671Z,100.00
2024-02-14T04:37:51.134Z,100.00
2024-02-14T04:40:20.404Z,100.00
2024-02-14T04:42:49.344Z,100.00
2024-02-14T04:45:18.691Z,100.00
2024-02-14T04:47:47.725Z,100.00
2024-02-14T04:50:20.123Z,100.00
2024-02-14T04:52:48.645Z,100.00
2024-02-14T04:55:17.568Z,100.00
2024-02-14T04:57:46.685Z,100.00
2024-02-14T05:00:16.602Z,100.00
2024-02-14T05:02:45.656Z,100.00
2024-02-14T05:05:14.676Z,100.00
2024-02-14T05:07:44.813Z,100.00
2024-02-14T05:10:14.051Z,100.00
2024-02-14T05:12:43.042Z,100.00
2024-02-14T05:15:13.443Z,100.00
2024-02-14T05:17:44.671Z,100.00
2024-02-14T05:20:14.171Z,100.00
2024-02-14T05:22:42.628Z,100.00
2024-02-14T05:25:13.050Z,100.00
2024-02-14T05:27:41.998Z,100.00
2024-02-14T05:30:11.063Z,100.00
2024-02-14T05:32:41.040Z,100.00
2024-02-14T05:35:10.967Z,100.00
2024-02-14T05:37:39.647Z,100.00
2024-02-14T05:40:09.883Z,100.00
2024-02-14T05:42:40.076Z,100.00
2024-02-14T05:45:11.167Z,100.00
2024-02-14T05:47:41.026Z,100.00
2024-02-14T05:50:12.519Z,100.00
2024-02-14T05:52:41.241Z,100.00
2024-02-14T05:55:10.462Z,100.00
2024-02-14T05:57:40.891Z,100.00
2024-02-14T06:00:12.609Z,100.00
2024-02-14T06:02:42.151Z,100.00
2024-02-14T06:05:12.240Z,100.00
2024-02-14T06:07:41.450Z,100.00
2024-02-14T06:10:11.546Z,100.00
2024-02-14T06:12:44.376Z,100.00
2024-02-14T06:15:13.486Z,100.00
2024-02-14T06:17:42.684Z,100.00
2024-02-14T06:20:14.079Z,100.00
2024-02-14T06:22:50.377Z,100.00
2024-02-14T06:25:25.838Z,100.00
2024-02-14T06:27:56.690Z,100.00
2024-02-14T06:30:28.575Z,100.00
2024-02-14T06:33:02.659Z,100.00
2024-02-14T06:35:32.779Z,100.00
2024-02-14T06:38:04.797Z,100.00
2024-02-14T06:40:34.267Z,100.00
2024-02-14T06:43:04.677Z,100.00
2024-02-14T06:45:33.702Z,100.00
2024-02-14T06:48:02.772Z,100.00
2024-02-14T06:50:32.575Z,100.00
2024-02-14T06:53:02.159Z,100.00
2024-02-14T06:55:33.213Z,100.00
2024-02-14T06:58:02.390Z,100.00
2024-02-14T07:00:32.835Z,100.00
2024-02-14T07:03:03.199Z,100.00
2024-02-14T07:05:32.079Z,100.00
2024-02-14T07:08:01.025Z,100.00
2024-02-14T07:10:29.442Z,100.00
2024-02-14T07:12:58.276Z,100.00
2024-02-14T07:15:30.038Z,100.00
2024-02-14T07:18:00.800Z,100.00
2024-02-14T07:20:29.921Z,100.00
2024-02-14T07:22:58.956Z,100.00
2024-02-14T07:25:27.589Z,100.00
2024-02-14T07:27:56.407Z,100.00
2024-02-14T07:30:25.887Z,100.00
2024-02-14T07:32:55.370Z,100.00
2024-02-14T07:35:25.833Z,100.00
2024-02-14T07:37:54.625Z,100.00
2024-02-14T07:40:23.862Z,100.00
2024-02-14T07:42:52.676Z,100.00
2024-02-14T07:45:21.658Z,100.00
2024-02-14T07:47:51.915Z,100.00
2024-02-14T07:50:21.226Z,100.00
2024-02-14T07:52:51.057Z,100.00
2024-02-14T07:55:20.343Z,100.00
2024-02-14T07:57:49.282Z,100.00
2024-02-14T08:00:23.952Z,100.00
2024-02-14T08:02:53.123Z,100.00
2024-02-14T08:05:22.048Z,100.00
2024-02-14T08:07:51.833Z,100.00
2024-02-14T08:10:21.541Z,100.00
2024-02-14T08:12:50.559Z,100.00
2024-02-14T08:15:19.406Z,100.00
2024-02-14T08:17:49.738Z,100.00
2024-02-14T08:20:19.294Z,100.00
2024-02-14T08:22:47.809Z,100.00
2024-02-14T08:25:18.273Z,100.00
2024-02-14T08:27:46.892Z,100.00
2024-02-14T08:30:16.399Z,100.00
2024-02-14T08:32:45.919Z,100.00
2024-02-14T08:35:15.497Z,100.00
2024-02-14T08:37:44.026Z,100.00
2024-02-14T08:40:13.785Z,100.00
2024-02-14T08:42:44.094Z,100.00
2024-02-14T08:45:12.943Z,100.00
2024-02-14T08:47:41.999Z,100.00
2024-02-14T08:50:11.568Z,100.00
2024-02-14T08:52:40.620Z,100.00
2024-02-14T08:55:15.878Z,100.00
2024-02-14T08:57:49.236Z,98.19
2024-02-14T09:00:21.382Z,94.73
2024-02-14T09:02:50.861Z,88.32
2024-02-14T09:05:20.250Z,88.11
2024-02-14T09:07:48.834Z,89.80
2024-02-14T09:10:17.682Z,88.67
2024-02-14T09:12:48.057Z,86.74
2024-02-14T09:15:17.041Z,84.49
2024-02-14T09:17:46.053Z,83.34
2024-02-14T09:20:15.747Z,83.91
2024-02-14T09:22:44.895Z,83.98
2024-02-14T09:25:15.012Z,85.39
2024-02-14T09:27:45.174Z,84.90
2024-02-14T09:30:24.679Z,86.37
2024-02-14T09:33:01.283Z,89.63
2024-02-14T09:35:30.361Z,84.30
2024-02-14T09:38:00.557Z,84.18
2024-02-14T09:40:29.119Z,82.53
2024-02-14T09:42:59.865Z,66.82
2024-02-14T09:45:30.288Z,59.59
2024-02-14T09:48:00.094Z,46.23
2024-02-14T09:50:29.442Z,48.60
2024-02-14T09:52:58.775Z,46.62
2024-02-14T09:55:27.983Z,49.89
2024-02-14T09:57:59.057Z,50.23
2024-02-14T10:00:29.832Z,49.37
2024-02-14T10:02:58.970Z,48.10
2024-02-14T10:05:28.313Z,45.31
2024-02-14T10:07:59.337Z,42.71
2024-02-14T10:10:29.124Z,42.81
2024-02-14T10:12:58.245Z,38.15
2024-02-14T10:15:27.347Z,37.98
2024-02-14T10:17:58.886Z,36.84
2024-02-14T10:20:28.746Z,37.58
2024-02-14T10:23:04.011Z,41.11
2024-02-14T10:25:33.650Z,41.60
2024-02-14T10:28:09.893Z,40.05
2024-02-14T10:30:39.675Z,39.19
2024-02-14T10:33:17.332Z,37.20
2024-02-14T10:35:57.526Z,38.15
2024-02-14T10:38:28.595Z,37.21
2024-02-14T10:40:57.190Z,40.64
2024-02-14T10:43:26.670Z,38.93
2024-02-14T10:45:56.317Z,37.53
2024-02-14T10:48:28.036Z,35.24
2024-02-14T10:50:58.846Z,33.50
2024-02-14T10:53:29.163Z,34.76
2024-02-14T10:55:58.156Z,34.18
2024-02-14T10:58:28.083Z,34.27
2024-02-14T11:00:57.042Z,34.40
2024-02-14T11:03:27.879Z,32.29
2024-02-14T11:06:02.189Z,32.56
2024-02-14T11:08:32.945Z,33.38
2024-02-14T11:11:02.860Z,32.09
2024-02-14T11:13:32.471Z,31.09
2024-02-14T11:16:03.170Z,30.31
2024-02-14T11:18:34.747Z,29.95
2024-02-14T11:21:06.764Z,30.69
2024-02-14T11:23:36.002Z,30.94
2024-02-14T11:26:06.532Z,30.57
2024-02-14T11:28:34.832Z,28.28
2024-02-14T11:31:05.558Z,30.00
2024-02-14T11:33:36.571Z,31.17
2024-02-14T11:36:11.845Z,32.22
2024-02-14T11:38:43.017Z,32.13
2024-02-14T11:41:13.317Z,31.17
2024-02-14T11:43:41.879Z,31.99
2024-02-14T11:46:11.370Z,31.73
2024-02-14T11:48:43.228Z,32.89
2024-02-14T11:51:13.981Z,31.01
2024-02-14T11:53:42.767Z,31.03
2024-02-14T11:56:13.426Z,31.75
2024-02-14T11:58:41.807Z,30.91
2024-02-14T12:01:11.173Z,31.08
2024-02-14T12:03:42.740Z,32.89
2024-02-14T12:06:12.099Z,33.95
2024-02-14T12:08:41.730Z,30.08
2024-02-14T12:11:10.610Z,30.61
2024-02-14T12:13:44.594Z,30.09
2024-02-14T12:16:13.554Z,30.20
2024-02-14T12:18:46.472Z,31.82
2024-02-14T12:21:15.604Z,29.54
2024-02-14T12:23:44.594Z,30.66
2024-02-14T12:26:18.472Z,29.98
2024-02-14T12:28:49.654Z,32.94
2024-02-14T12:31:24.702Z,33.11
2024-02-14T12:33:56.791Z,34.41
2024-02-14T12:36:26.008Z,32.69
2024-02-14T12:38:55.177Z,32.04
2024-02-14T12:41:24.657Z,32.60
2024-02-14T12:43:53.068Z,31.38
2024-02-14T12:46:22.148Z,37.03
2024-02-14T12:48:51.353Z,35.87
2024-02-14T12:51:21.894Z,37.43
2024-02-14T12:53:51.054Z,37.43
2024-02-14T12:56:20.057Z,36.31
2024-02-14T12:58:49.198Z,35.00
2024-02-14T13:01:19.529Z,36.88
2024-02-14T13:03:49.486Z,38.34
2024-02-14T13:06:18.644Z,37.13
2024-02-14T13:08:49.156Z,37.69
2024-02-14T13:11:20.250Z,39.09
2024-02-14T13:16:17.988Z,38.20
2024-02-14T13:18:48.568Z,38.78
2024-02-14T13:21:18.133Z,39.74
2024-02-14T13:23:49.141Z,38.31
2024-02-14T13:26:18.671Z,37.48
2024-02-14T13:28:47.074Z,38.11
2024-02-14T13:31:16.373Z,37.20
2024-02-14T13:33:45.262Z,38.94
2024-02-14T13:36:17.118Z,38.20
2024-02-14T13:38:47.339Z,35.53
2024-02-14T13:41:17.473Z,35.60
2024-02-14T13:43:45.848Z,36.78
2024-02-14T13:46:15.008Z,37.24
2024-02-14T13:48:44.012Z,36.60
2024-02-14T13:51:12.974Z,38.68
2024-02-14T13:53:42.117Z,38.03
2024-02-14T13:56:11.012Z,39.02
2024-02-14T13:58:41.079Z,39.43
2024-02-14T14:01:09.802Z,42.28
2024-02-14T14:03:39.038Z,41.80
2024-02-14T14:06:09.348Z,40.88
2024-02-14T14:08:39.022Z,40.51
2024-02-14T14:11:09.412Z,41.34
2024-02-14T14:13:37.871Z,40.99
2024-02-14T14:16:08.586Z,40.50
2024-02-14T14:18:37.876Z,41.46
2024-02-14T14:21:07.351Z,41.67
2024-02-14T14:23:36.602Z,42.52
2024-02-14T14:26:05.605Z,43.80
2024-02-14T14:28:34.079Z,43.48
2024-02-14T14:31:03.333Z,44.46
2024-02-14T14:33:33.844Z,44.82
2024-02-14T14:36:04.557Z,44.30
2024-02-14T14:38:33.534Z,44.20
2024-02-14T14:41:02.252Z,43.92
2024-02-14T14:43:31.574Z,45.64
2024-02-14T14:46:00.692Z,47.13
2024-02-14T14:48:33.961Z,49.26
2024-02-14T14:51:03.919Z,50.71
2024-02-14T14:53:33.192Z,51.61
2024-02-14T14:56:02.444Z,52.39
2024-02-14T14:58:34.715Z,53.06
2024-02-14T15:01:06.352Z,53.90
2024-02-14T15:03:36.823Z,54.97
2024-02-14T15:06:06.073Z,55.97
2024-02-14T15:08:35.101Z,56.22
2024-02-14T15:11:04.058Z,56.96
2024-02-14T15:13:32.928Z,57.45
2024-02-14T15:16:04.603Z,57.75
2024-02-14T15:18:33.498Z,57.68
2024-02-14T15:21:04.235Z,57.44
2024-02-14T15:23:33.079Z,58.01
2024-02-14T15:26:05.174Z,57.84
2024-02-14T15:28:41.203Z,58.41
2024-02-14T15:31:28.021Z,59.08
2024-02-14T15:33:57.174Z,58.15
2024-02-14T15:36:27.634Z,58.52
2024-02-14T15:38:56.733Z,59.85
2024-02-14T15:41:25.688Z,59.92
2024-02-14T15:43:54.323Z,60.10
2024-02-14T15:46:23.516Z,61.24
2024-02-14T15:48:53.027Z,60.99
2024-02-14T15:51:24.754Z,60.87
2024-02-14T15:53:55.226Z,61.65
2024-02-14T15:56:25.371Z,61.88
2024-02-14T15:58:54.978Z,62.07
2024-02-14T16:01:23.885Z,61.77
2024-02-14T16:03:53.052Z,61.75
2024-02-14T16:06:22.018Z,61.47
2024-02-14T16:08:53.592Z,61.64
2024-02-14T16:11:24.273Z,61.59
2024-02-14T16:13:52.664Z,61.65
2024-02-14T16:16:21.659Z,62.26
2024-02-14T16:18:50.671Z,62.40
2024-02-14T16:21:19.707Z,62.91
2024-02-14T16:23:48.678Z,62.68
2024-02-14T16:26:17.538Z,63.65
2024-02-14T16:28:47.321Z,64.00
2024-02-14T16:31:15.999Z,63.16
2024-02-14T16:33:44.957Z,63.26
2024-02-14T16:36:14.027Z,64.22
2024-02-14T16:38:42.860Z,63.77
2024-02-14T16:41:12.500Z,64.21
2024-02-14T16:43:40.831Z,65.48
2024-02-14T16:46:11.169Z,65.81
2024-02-14T16:48:40.246Z,67.29
2024-02-14T16:51:09.318Z,67.25
2024-02-14T16:53:38.261Z,68.14
2024-02-14T16:56:08.807Z,68.02
2024-02-14T16:58:37.519Z,68.05
2024-02-14T17:01:09.418Z,68.30
2024-02-14T17:03:49.390Z,66.49
2024-02-14T17:06:27.850Z,66.68
2024-02-14T17:08:57.078Z,67.22
2024-02-14T17:11:26.621Z,67.79
2024-02-14T17:13:55.106Z,68.38
2024-02-14T17:16:23.901Z,68.40
2024-02-14T17:18:55.005Z,68.93
2024-02-14T17:21:24.407Z,69.42
2024-02-14T17:23:53.321Z,68.91
2024-02-14T17:26:22.648Z,69.97
2024-02-14T17:28:51.037Z,69.75
2024-02-14T17:31:19.989Z,70.09
2024-02-14T17:33:48.951Z,68.36
2024-02-14T17:36:19.454Z,68.89
2024-02-14T17:38:49.495Z,68.63
2024-02-14T17:41:19.256Z,67.69
2024-02-14T17:43:47.748Z,68.47
2024-02-14T17:46:16.641Z,68.65
2024-02-14T17:48:45.683Z,69.49
2024-02-14T17:51:14.940Z,69.39
2024-02-14T17:53:46.165Z,69.76
2024-02-14T17:56:15.109Z,69.97
2024-02-14T17:58:44.308Z,69.90
2024-02-14T18:01:14.213Z,69.72
2024-02-14T18:03:42.977Z,69.86
2024-02-14T18:06:11.988Z,70.83
2024-02-14T18:08:41.062Z,70.49
2024-02-14T18:11:11.288Z,70.25
2024-02-14T18:13:39.634Z,70.94
2024-02-14T18:16:10.371Z,70.53
2024-02-14T18:18:42.566Z,71.33
2024-02-14T18:21:16.565Z,71.02
2024-02-14T18:23:47.139Z,71.41
2024-02-14T18:26:18.247Z,70.87
2024-02-14T18:28:46.703Z,70.98
2024-02-14T18:31:15.417Z,70.93
2024-02-14T18:33:44.460Z,70.98
2024-02-14T18:36:14.327Z,71.09
2024-02-14T18:38:43.206Z,71.22
2024-02-14T18:41:12.095Z,70.91
2024-02-14T18:43:41.906Z,70.06
2024-02-14T18:46:10.992Z,70.01
2024-02-14T18:48:40.942Z,69.93
2024-02-14T18:51:09.784Z,69.28
2024-02-14T18:53:38.767Z,69.45
2024-02-14T18:56:08.182Z,68.30
2024-02-14T18:58:36.935Z,68.20
2024-02-14T19:01:07.467Z,68.34
2024-02-14T19:03:37.280Z,68.11
2024-02-14T19:06:06.532Z,67.63
2024-02-14T19:08:35.706Z,68.01
2024-02-14T19:11:05.678Z,67.87
2024-02-14T19:13:34.006Z,67.21
2024-02-14T19:16:09.186Z,68.21
2024-02-14T19:18:43.824Z,67.41
2024-02-14T19:21:13.762Z,67.74
2024-02-14T19:23:43.483Z,67.45
2024-02-14T19:26:12.372Z,68.16
2024-02-14T19:28:40.776Z,67.89
2024-02-14T19:31:09.684Z,68.18
2024-02-14T19:33:38.918Z,67.12
2024-02-14T19:36:11.328Z,67.85
2024-02-14T19:38:40.412Z,68.12
2024-02-14T19:41:10.000Z,67.89
2024-02-14T19:43:40.320Z,67.84
2024-02-14T19:46:10.869Z,68.27
2024-02-14T19:48:39.929Z,68.36
2024-02-14T19:51:10.976Z,68.69
2024-02-14T19:53:39.879Z,68.95
2024-02-14T19:56:09.019Z,68.98
2024-02-14T19:58:37.384Z,69.69
2024-02-14T20:01:10.522Z,69.52
2024-02-14T20:03:39.682Z,70.09
2024-02-14T20:06:10.571Z,70.31
2024-02-14T20:08:41.629Z,70.69
2024-02-14T20:11:11.023Z,71.19
2024-02-14T20:13:39.699Z,70.92
2024-02-14T20:16:09.677Z,71.77
2024-02-14T20:18:38.960Z,71.65
2024-02-14T20:21:09.709Z,72.17
2024-02-14T20:23:38.660Z,72.14
2024-02-14T20:26:07.796Z,72.77
2024-02-14T20:28:39.135Z,73.44
2024-02-14T20:31:09.298Z,73.13
2024-02-14T20:33:38.851Z,73.77
2024-02-14T20:36:09.897Z,73.28
2024-02-14T20:38:39.799Z,73.80
2024-02-14T20:41:09.013Z,73.40
2024-02-14T20:43:37.351Z,74.85
2024-02-14T20:46:06.316Z,75.61
2024-02-14T20:48:35.312Z,74.92
2024-02-14T20:51:04.739Z,75.13
2024-02-14T20:53:35.880Z,75.31
2024-02-14T20:56:04.832Z,76.39
2024-02-14T20:58:33.248Z,75.25
2024-02-14T21:01:02.280Z,76.24
2024-02-14T21:03:52.120Z,76.44
2024-02-14T21:06:22.149Z,76.90
2024-02-14T21:08:52.700Z,76.17
2024-02-14T21:11:21.751Z,76.06
2024-02-14T21:13:50.839Z,76.94
2024-02-14T21:16:20.268Z,77.77
2024-02-14T21:18:49.124Z,77.74
2024-02-14T21:21:18.157Z,77.80
2024-02-14T21:23:47.503Z,77.74
2024-02-14T21:26:17.870Z,78.55
2024-02-14T21:28:46.368Z,78.59
2024-02-14T21:31:15.756Z,79.36
2024-02-14T21:33:45.341Z,79.56
2024-02-14T21:36:15.746Z,78.60
2024-02-14T21:38:44.631Z,79.36
2024-02-14T21:41:13.389Z,79.39
2024-02-14T21:43:43.082Z,80.96
2024-02-14T21:46:11.962Z,80.99
2024-02-14T21:48:40.796Z,81.39
2024-02-14T21:51:11.475Z,82.08
2024-02-14T21:53:40.447Z,82.05
2024-02-14T21:56:09.184Z,81.67
2024-02-14T21:58:37.906Z,82.38
2024-02-14T22:01:09.232Z,82.00
2024-02-14T22:03:38.157Z,82.38
2024-02-14T22:06:07.457Z,81.91
2024-02-14T22:08:36.486Z,82.52
2024-02-14T22:11:05.419Z,82.88
2024-02-14T22:13:34.253Z,82.58
2024-02-14T22:16:04.785Z,82.19
2024-02-14T22:18:36.724Z,82.08
2024-02-14T22:21:06.334Z,82.03
2024-02-14T22:23:35.429Z,82.60
2024-02-14T22:26:04.830Z,81.06
2024-02-14T22:28:35.960Z,81.18
2024-02-14T22:31:04.879Z,81.37
2024-02-14T22:33:35.442Z,81.71
2024-02-14T22:36:04.673Z,82.09
2024-02-14T22:38:33.747Z,82.30
2024-02-14T22:41:02.602Z,81.78
2024-02-14T22:43:30.992Z,82.49
2024-02-14T22:45:59.797Z,81.67
2024-02-14T22:48:28.774Z,81.91
2024-02-14T22:50:59.118Z,82.84
2024-02-14T22:53:28.188Z,81.87
2024-02-14T22:55:56.916Z,82.84
2024-02-14T22:58:26.125Z,82.50
2024-02-14T23:00:54.932Z,81.76
2024-02-14T23:03:23.774Z,82.08
2024-02-14T23:05:52.753Z,81.92
2024-02-14T23:08:23.086Z,81.97
2024-02-14T23:10:51.717Z,82.16
2024-02-14T23:13:20.390Z,81.54
2024-02-14T23:15:53.381Z,82.23
2024-02-14T23:18:22.851Z,82.08
2024-02-14T23:20:51.970Z,82.43
2024-02-14T23:23:22.186Z,82.91
2024-02-14T23:25:50.728Z,83.16
2024-02-14T23:28:19.574Z,83.84
2024-02-14T23:30:48.341Z,84.16
2024-02-14T23:33:17.601Z,83.76
2024-02-14T23:35:47.088Z,84.21
2024-02-14T23:38:15.867Z,84.76
2024-02-14T23:40:46.210Z,84.08
2024-02-14T23:43:15.045Z,86.02
2024-02-14T23:45:43.770Z,85.11
2024-02-14T23:48:12.896Z,85.29
2024-02-14T23:50:41.984Z,86.08
2024-02-14T23:53:10.855Z,84.65
2024-02-14T23:55:39.136Z,85.25
2024-02-14T23:58:10.784Z,85.58
